Time;durP1;ratioP1;P1;durP2;ratioP2;P2;SDS_P1;SDS_P2;PMS_P1;PMS_P2;Temp;Humidity;BMP_temperature;BMP_pressure;BME280_temperature;BME280_humidity;BME280_pressure;Samples;Min_cycle;Max_cycle;Signal;HPM_P1;HPM_P2
2023/05/03 00:01:38;;;;;;;3.50;1.20;;;;;;;12.10;40.13;101843.80;107645;1251;110948;-61
2023/05/03 00:04:07;;;;;;;7.80;1.40;;;;;;;12.09;39.89;101841.26;107596;1254;108213;-60
2023/05/03 00:06:35;;;;;;;2.60;1.40;;;;;;;12.06;39.96;101842.34;107596;1251;97700;-59
2023/05/03 00:09:04;;;;;;;5.70;1.30;;;;;;;11.98;40.57;101832.34;107577;1251;98472;-60
2023/05/03 00:11:33;;;;;;;2.90;1.20;;;;;;;11.88;40.52;101833.45;107600;1251;111226;-61
2023/05/03 00:14:01;;;;;;;3.70;1.50;;;;;;;11.79;40.27;101833.20;107602;1254;109789;-60
2023/05/03 00:16:29;;;;;;;7.50;1.40;;;;;;;11.75;40.69;101834.05;107598;1254;108426;-60
2023/05/03 00:18:59;;;;;;;1.50;1.30;;;;;;;11.70;40.68;101827.25;107602;1251;97866;-60
2023/05/03 00:21:27;;;;;;;6.20;1.70;;;;;;;11.65;41.29;101828.02;107586;1251;98662;-60
2023/05/03 00:23:55;;;;;;;11.20;1.90;;;;;;;11.55;41.19;101829.84;107608;1251;111837;-59
2023/05/03 00:26:25;;;;;;;9.50;1.50;;;;;;;11.49;41.37;101832.64;107597;1251;109697;-60
2023/05/03 00:28:53;;;;;;;8.10;1.70;;;;;;;11.43;41.51;101829.11;107572;1254;108787;-59
2023/05/03 00:31:22;;;;;;;4.00;2.20;;;;;;;11.39;41.41;101827.27;107553;1251;97802;-58
2023/05/03 00:33:50;;;;;;;2.50;1.20;;;;;;;11.36;41.55;101822.83;107607;1251;98357;-60
2023/05/03 00:36:19;;;;;;;5.30;1.60;;;;;;;11.31;41.75;101822.25;107638;1251;111800;-60
2023/05/03 00:38:47;;;;;;;5.20;1.60;;;;;;;11.24;41.67;101817.59;107594;1251;109954;-58
2023/05/03 00:41:16;;;;;;;11.60;1.50;;;;;;;11.18;41.74;101822.73;107607;1256;108054;-60
2023/05/03 00:43:44;;;;;;;6.40;1.40;;;;;;;11.12;41.66;101821.32;107569;1251;97787;-58
2023/05/03 00:46:12;;;;;;;4.30;1.60;;;;;;;11.04;42.14;101824.42;107639;1250;97905;-60
2023/05/03 00:48:48;;;;;;;4.80;1.50;;;;;;;10.94;42.38;101824.63;107575;1250;111554;-60
2023/05/03 00:51:20;;;;;;;6.50;1.30;;;;;;;10.87;42.73;101818.12;107688;1251;109554;-61
2023/05/03 00:53:50;;;;;;;4.40;1.40;;;;;;;10.80;42.72;101820.63;107698;1251;107344;-59
2023/05/03 00:56:22;;;;;;;3.50;1.50;;;;;;;10.73;42.98;101814.30;107628;1251;97791;-60
2023/05/03 00:58:51;;;;;;;7.20;1.80;;;;;;;10.66;43.21;101812.69;107595;1251;97911;-60
2023/05/03 01:01:20;;;;;;;8.50;1.60;;;;;;;10.60;43.02;101815.23;107588;1251;111272;-59
2023/05/03 01:03:49;;;;;;;4.10;1.50;;;;;;;10.54;43.02;101814.05;107630;1251;108211;-61
2023/05/03 01:06:35;;;;;;;5.20;1.50;;;;;;;10.49;42.95;101812.63;107676;1251;108779;-60
2023/05/03 01:09:20;;;;;;;13.70;2.30;;;;;;;10.42;43.47;101816.71;107586;1251;97857;-60
2023/05/03 01:12:03;;;;;;;5.40;1.70;;;;;;;10.38;43.75;101814.31;107563;1251;97695;-61
2023/05/03 01:14:45;;;;;;;2.10;1.50;;;;;;;10.32;43.78;101812.67;107602;1251;112176;-60
2023/05/03 01:17:14;;;;;;;8.70;2.80;;;;;;;10.31;43.76;101812.39;107619;1250;109559;-59
2023/05/03 01:19:47;;;;;;;2.20;1.60;;;;;;;10.30;43.63;101819.13;107557;1251;107573;-60
2023/05/03 01:22:23;;;;;;;13.10;2.40;;;;;;;10.29;43.51;101810.94;107552;1251;97818;-60
2023/05/03 01:25:09;;;;;;;8.70;1.90;;;;;;;10.27;43.49;101812.73;107603;1251;98316;-60
2023/05/03 01:27:40;;;;;;;8.10;1.80;;;;;;;10.24;43.81;101811.84;107640;1250;110583;-60
2023/05/03 01:30:11;;;;;;;11.60;2.20;;;;;;;10.20;43.84;101821.10;107611;1255;110028;-63
2023/05/03 01:33:24;;;;;;;2.90;1.90;;;;;;;10.15;43.87;101822.64;107599;1251;106601;-59
2023/05/03 01:36:01;;;;;;;3.90;2.10;;;;;;;10.08;43.79;101820.86;107489;1251;97854;-59
2023/05/03 01:38:34;;;;;;;6.30;2.00;;;;;;;10.03;44.17;101821.02;107593;1251;97717;-59
2023/05/03 01:41:10;;;;;;;8.70;2.40;;;;;;;10.00;43.99;101816.34;107605;1251;112077;-60
2023/05/03 01:43:39;;;;;;;7.30;2.30;;;;;;;9.97;44.05;101814.80;107573;1250;110229;-59
2023/05/03 01:46:08;;;;;;;9.30;2.40;;;;;;;9.92;44.23;101819.48;107685;1251;108778;-63
2023/05/03 01:48:36;;;;;;;9.20;3.10;;;;;;;9.85;44.56;101818.11;107618;1251;97850;-59
2023/05/03 01:51:05;;;;;;;12.80;2.80;;;;;;;9.81;44.57;101818.39;107620;1251;97724;-57
2023/05/03 01:53:33;;;;;;;6.90;1.90;;;;;;;9.78;44.63;101820.92;107443;1251;112666;-59
2023/05/03 01:56:02;;;;;;;3.80;1.90;;;;;;;9.74;44.75;101819.62;107586;1251;108751;-59
2023/05/03 01:58:31;;;;;;;12.20;2.00;;;;;;;9.68;45.20;101821.95;107589;1251;108474;-58
2023/05/03 02:00:59;;;;;;;9.40;1.90;;;;;;;9.65;45.62;101825.23;107564;1251;97827;-58
2023/05/03 02:03:29;;;;;;;11.80;2.90;;;;;;;9.61;45.46;101830.13;107604;1251;98328;-60
2023/05/03 02:05:57;;;;;;;17.90;2.80;;;;;;;9.58;45.45;101831.60;107597;1256;111554;-60
2023/05/03 02:08:26;;;;;;;11.40;2.70;;;;;;;9.52;45.77;101833.77;107591;1251;109681;-58
2023/05/03 02:10:55;;;;;;;7.50;2.60;;;;;;;9.47;46.00;101836.25;107606;1251;109501;-59
2023/05/03 02:13:23;;;;;;;10.70;2.60;;;;;;;9.42;46.21;101835.91;107581;1251;98576;-58
2023/05/03 02:15:51;;;;;;;9.30;2.40;;;;;;;9.36;46.83;101840.94;107667;1254;97703;-58
2023/05/03 02:18:21;;;;;;;12.20;2.50;;;;;;;9.31;47.05;101843.94;107671;1251;110851;-59
2023/05/03 02:20:49;;;;;;;6.80;2.00;;;;;;;9.24;46.98;101843.48;107530;1256;109984;-59
2023/05/03 02:23:23;;;;;;;8.90;2.40;;;;;;;9.17;47.39;101847.58;107539;1255;107591;-60
2023/05/03 02:25:54;;;;;;;4.10;1.90;;;;;;;9.05;47.77;101851.88;107593;1253;99402;-62
2023/05/03 02:28:22;;;;;;;4.60;2.50;;;;;;;8.95;47.86;101851.48;107557;1254;97838;-59
2023/05/03 02:30:50;;;;;;;10.90;2.40;;;;;;;8.88;48.04;101850.81;107613;1250;110937;-58
2023/05/03 02:33:19;;;;;;;8.40;1.90;;;;;;;8.83;48.07;101850.25;107658;1255;108960;-59
2023/05/03 02:35:47;;;;;;;12.80;3.70;;;;;;;8.77;48.32;101842.97;107593;1251;108308;-60
2023/05/03 02:38:16;;;;;;;7.60;2.30;;;;;;;8.76;48.69;101840.83;107557;1251;97890;-59
2023/05/03 02:40:44;;;;;;;8.10;2.20;;;;;;;8.75;48.86;101843.79;107620;1251;97880;-59
2023/05/03 02:43:13;;;;;;;13.60;2.70;;;;;;;8.70;48.94;101841.63;107570;1251;112437;-59
2023/05/03 02:45:42;;;;;;;13.30;3.10;;;;;;;8.67;48.63;101840.73;107596;1254;110507;-58
2023/05/03 02:48:11;;;;;;;14.60;3.70;;;;;;;8.66;48.92;101841.69;107587;1256;107332;-59
2023/05/03 02:50:41;;;;;;;10.50;3.10;;;;;;;8.64;49.07;101842.35;107577;1251;97892;-58
2023/05/03 02:53:10;;;;;;;12.10;3.00;;;;;;;8.60;48.84;101845.09;107579;1251;97768;-60
2023/05/03 02:55:40;;;;;;;16.30;2.60;;;;;;;8.57;48.99;101841.33;107689;1251;111931;-60
2023/05/03 02:58:09;;;;;;;15.70;2.60;;;;;;;8.53;49.08;101839.45;107655;1251;108989;-59
2023/05/03 03:00:37;;;;;;;17.80;3.40;;;;;;;8.50;49.22;101835.18;107670;1254;108799;-60
2023/05/03 03:03:06;;;;;;;15.90;2.40;;;;;;;8.46;49.06;101838.05;107647;1251;97825;-60
2023/05/03 03:05:34;;;;;;;9.90;2.70;;;;;;;8.44;49.16;101841.77;107632;1251;97876;-59
2023/05/03 03:08:04;;;;;;;3.40;2.10;;;;;;;8.39;49.45;101836.73;107641;1251;111289;-60
2023/05/03 03:10:32;;;;;;;8.20;2.60;;;;;;;8.34;49.41;101835.63;107547;1251;108928;-60
2023/05/03 03:13:01;;;;;;;8.10;2.70;;;;;;;8.32;49.27;101838.56;107574;1251;107113;-60
2023/05/03 03:15:32;;;;;;;11.80;3.20;;;;;;;8.31;49.51;101835.46;107603;1251;97819;-59
2023/05/03 03:18:01;;;;;;;11.60;2.50;;;;;;;8.25;49.33;101836.46;107612;1251;98197;-59
2023/05/03 03:20:30;;;;;;;10.60;2.20;;;;;;;8.24;49.60;101836.91;107592;1254;111770;-60
2023/05/03 03:23:01;;;;;;;7.70;2.30;;;;;;;8.25;49.60;101834.68;107545;1251;109658;-59
2023/05/03 03:25:30;;;;;;;7.20;2.70;;;;;;;8.28;49.47;101838.09;107596;1255;108112;-60
2023/05/03 03:27:59;;;;;;;10.80;2.40;;;;;;;8.32;49.91;101838.93;107652;1251;97706;-60
2023/05/03 03:30:29;;;;;;;16.00;3.70;;;;;;;8.34;49.54;101838.31;107594;1251;98353;-60
2023/05/03 03:33:05;;;;;;;12.70;3.20;;;;;;;8.38;49.96;101836.23;107615;1250;111780;-59
2023/05/03 03:35:37;;;;;;;17.60;3.10;;;;;;;8.43;50.22;101841.83;107688;1251;109547;-58
2023/05/03 03:38:06;;;;;;;17.30;3.20;;;;;;;8.46;50.33;101847.19;107639;1251;106374;-60
2023/05/03 03:40:36;;;;;;;10.50;3.00;;;;;;;8.50;50.62;101852.35;107540;1252;97812;-59
2023/05/03 03:43:05;;;;;;;8.80;2.30;;;;;;;8.52;50.74;101857.96;107635;1256;98375;-59
2023/05/03 03:45:35;;;;;;;7.90;2.50;;;;;;;8.50;51.20;101863.27;107585;1256;111934;-59
2023/05/03 03:48:05;;;;;;;19.60;2.20;;;;;;;8.48;50.96;101862.80;107588;1251;109939;-58
2023/05/03 03:50:34;;;;;;;7.90;2.50;;;;;;;8.48;50.66;101863.35;107534;1251;108447;-59
2023/05/03 03:53:03;;;;;;;20.40;3.40;;;;;;;8.51;50.66;101868.02;107661;1251;97728;-60
2023/05/03 03:55:32;;;;;;;18.00;2.80;;;;;;;8.55;50.63;101867.75;107625;1251;98353;-60
2023/05/03 03:58:00;;;;;;;20.30;4.50;;;;;;;8.60;50.57;101869.58;107657;1251;110747;-59
2023/05/03 04:00:29;;;;;;;10.60;2.70;;;;;;;8.66;50.50;101866.52;107626;1250;109014;-59
2023/05/03 04:03:05;;;;;;;10.40;2.90;;;;;;;8.73;50.89;101870.73;107617;1251;108292;-62
2023/05/03 04:05:35;;;;;;;14.00;3.20;;;;;;;8.81;51.50;101872.55;107546;1254;97822;-60
2023/05/03 04:08:05;;;;;;;22.20;2.60;;;;;;;8.87;51.69;101868.43;107519;1251;97934;-58
2023/05/03 04:10:34;;;;;;;11.80;2.90;;;;;;;8.90;51.26;101874.16;107560;1256;111810;-59
2023/05/03 04:13:02;;;;;;;10.40;5.00;;;;;;;8.93;51.33;101873.98;107598;1251;108473;-59
2023/05/03 04:15:31;;;;;;;16.10;4.10;;;;;;;8.94;51.50;101875.86;107579;1256;108783;-59
2023/05/03 04:18:00;;;;;;;13.10;4.00;;;;;;;8.95;51.34;101876.14;107563;1256;97905;-58
2023/05/03 04:20:28;;;;;;;18.80;5.80;;;;;;;9.00;51.49;101876.38;107410;1251;97826;-58
2023/05/03 04:22:59;;;;;;;15.20;5.10;;;;;;;9.09;51.42;101877.23;107655;1252;111859;-60
2023/05/03 04:25:32;;;;;;;18.80;5.90;;;;;;;9.20;51.50;101877.23;107472;1254;108011;-59
2023/05/03 04:28:05;;;;;;;22.70;4.80;;;;;;;9.31;51.13;101879.41;107513;1259;107978;-58
2023/05/03 04:30:35;;;;;;;22.60;5.30;;;;;;;9.36;51.43;101875.47;107483;1251;97834;-61
2023/05/03 04:33:03;;;;;;;10.70;3.10;;;;;;;9.41;51.70;101879.50;107424;1254;97824;-60
2023/05/03 04:35:35;;;;;;;12.90;2.90;;;;;;;9.51;51.86;101884.71;107581;1254;113015;-60
2023/05/03 04:38:08;;;;;;;12.20;2.40;;;;;;;9.60;52.04;101886.59;107454;1254;110133;-61
2023/05/03 04:40:37;;;;;;;8.40;2.60;;;;;;;9.68;51.61;101891.80;107548;1254;108518;-60
2023/05/03 04:43:08;;;;;;;10.80;2.70;;;;;;;9.74;51.89;101896.09;107609;1254;98362;-60
2023/05/03 04:45:39;;;;;;;5.80;2.50;;;;;;;9.77;51.55;101904.13;107562;1256;98343;-60
2023/05/03 04:48:10;;;;;;;14.30;2.90;;;;;;;9.80;51.55;101905.55;107549;1251;111453;-60
2023/05/03 04:50:39;;;;;;;10.40;2.90;;;;;;;9.82;51.64;101902.92;107538;1251;109225;-59
2023/05/03 04:53:08;;;;;;;4.80;2.70;;;;;;;9.83;51.66;101911.24;107559;1251;108148;-59
2023/05/03 04:55:39;;;;;;;19.70;3.60;;;;;;;9.85;51.71;101908.79;107568;1251;97844;-61
2023/05/03 04:58:08;;;;;;;10.50;3.40;;;;;;;9.89;51.57;101907.79;107594;1251;98337;-60
2023/05/03 05:00:36;;;;;;;12.70;3.30;;;;;;;9.93;51.39;101901.77;107581;1255;111836;-59
2023/05/03 05:03:09;;;;;;;10.70;2.90;;;;;;;9.98;51.26;101904.50;107581;1250;110065;-60
2023/05/03 05:05:38;;;;;;;14.60;3.40;;;;;;;10.01;51.03;101907.31;107520;1254;108746;-61
2023/05/03 05:08:08;;;;;;;8.90;2.90;;;;;;;10.09;51.03;101911.51;107544;1251;97859;-61
2023/05/03 05:10:42;;;;;;;12.90;3.20;;;;;;;10.14;51.19;101910.23;107522;1251;97816;-62
2023/05/03 05:13:14;;;;;;;14.10;3.50;;;;;;;10.17;51.45;101909.50;107549;1251;111323;-63
2023/05/03 05:15:43;;;;;;;10.30;3.30;;;;;;;10.20;51.52;101906.10;107575;1256;107285;-60
2023/05/03 05:18:13;;;;;;;9.10;3.40;;;;;;;10.22;51.57;101905.06;107567;1251;108784;-60
2023/05/03 05:20:42;;;;;;;9.70;3.30;;;;;;;10.28;51.43;101906.43;107541;1256;98384;-60
2023/05/03 05:23:11;;;;;;;10.90;3.20;;;;;;;10.33;51.56;101908.02;107534;1254;97841;-60
2023/05/03 05:25:41;;;;;;;16.70;3.40;;;;;;;10.41;51.39;101913.41;107571;1251;111567;-58
2023/05/03 05:28:10;;;;;;;13.70;3.40;;;;;;;10.51;51.19;101914.21;107580;1256;109625;-60
2023/05/03 05:30:40;;;;;;;13.50;2.90;;;;;;;10.61;50.83;101909.67;107470;1256;108226;-58
2023/05/03 05:33:09;;;;;;;7.40;2.80;;;;;;;10.74;50.55;101910.27;107428;1251;97936;-61
2023/05/03 05:35:37;;;;;;;6.60;2.20;;;;;;;10.85;50.65;101910.58;107598;1251;97959;-60
2023/05/03 05:38:06;;;;;;;15.50;3.00;;;;;;;10.94;50.22;101912.75;107517;1254;111730;-58
2023/05/03 05:40:35;;;;;;;12.00;3.00;;;;;;;11.05;49.88;101914.00;107561;1254;109787;-58
2023/05/03 05:43:03;;;;;;;9.80;2.70;;;;;;;11.15;49.66;101917.70;107528;1256;108225;-58
2023/05/03 05:45:34;;;;;;;10.60;2.50;;;;;;;11.26;49.58;101920.00;107519;1251;97787;-61
2023/05/03 05:48:04;;;;;;;6.40;2.80;;;;;;;11.36;49.31;101920.68;107493;1254;98524;-59
2023/05/03 05:50:33;;;;;;;12.80;2.70;;;;;;;11.48;49.04;101917.66;107509;1252;110483;-61
2023/05/03 05:53:07;;;;;;;14.90;2.80;;;;;;;11.61;48.61;101913.84;107558;1254;110041;-59
2023/05/03 05:55:38;;;;;;;10.30;2.50;;;;;;;11.72;48.23;101917.11;107280;1262;108376;-61
2023/05/03 05:58:15;;;;;;;20.20;3.20;;;;;;;11.80;48.28;101918.31;107484;1254;97819;-61
2023/05/03 06:00:50;;;;;;;9.30;2.70;;;;;;;11.90;48.34;101918.81;107550;1254;97830;-60
2023/05/03 06:03:19;;;;;;;12.30;2.70;;;;;;;12.00;48.16;101920.25;107535;1255;112232;-60
2023/05/03 06:05:49;;;;;;;18.30;3.00;;;;;;;12.10;48.19;101924.52;107566;1251;108947;-60
2023/05/03 06:08:17;;;;;;;7.20;2.70;;;;;;;12.19;48.28;101920.94;107538;1256;107475;-58
2023/05/03 06:10:46;;;;;;;9.00;2.60;;;;;;;12.28;48.19;101919.02;107556;1254;97803;-60
2023/05/03 06:13:14;;;;;;;15.10;3.80;;;;;;;12.37;48.03;101919.05;107552;1255;98501;-59
2023/05/03 06:15:44;;;;;;;8.50;2.10;;;;;;;12.47;47.82;101917.38;107387;1256;111526;-65
2023/05/03 06:18:13;;;;;;;7.70;2.50;;;;;;;12.58;47.46;101915.95;107600;1256;108660;-59
2023/05/03 06:20:41;;;;;;;22.70;3.00;;;;;;;12.71;47.07;101912.63;107469;1254;108185;-58
2023/05/03 06:23:10;;;;;;;17.80;2.70;;;;;;;12.85;46.90;101913.17;107566;1256;97874;-60
2023/05/03 06:25:38;;;;;;;9.30;2.50;;;;;;;12.94;46.77;101908.62;107637;1255;97852;-59
2023/05/03 06:28:07;;;;;;;6.60;2.80;;;;;;;13.05;46.71;101905.24;107585;1254;111408;-60
2023/05/03 06:30:36;;;;;;;9.30;2.80;;;;;;;13.17;46.98;101907.03;107544;1251;109916;-61
2023/05/03 06:33:12;;;;;;;9.40;2.50;;;;;;;13.29;46.40;101902.40;107534;1256;108135;-60
2023/05/03 06:35:42;;;;;;;7.10;2.40;;;;;;;13.44;44.65;101902.45;107513;1256;97888;-58
2023/05/03 06:38:11;;;;;;;13.20;2.30;;;;;;;13.57;43.91;101900.17;107573;1251;97809;-60
2023/05/03 06:40:40;;;;;;;8.90;2.10;;;;;;;13.67;43.93;101898.20;107545;1251;110893;-61
2023/05/03 06:43:08;;;;;;;7.10;1.80;;;;;;;13.77;42.85;101895.77;107522;1256;111062;-58
2023/05/03 06:46:01;;;;;;;17.90;2.90;;;;;;;13.97;42.07;101903.14;107535;1257;107793;-61
2023/05/03 06:48:29;;;;;;;9.20;2.10;;;;;;;14.07;42.48;101902.58;107541;1256;97816;-59
2023/05/03 06:50:58;;;;;;;20.00;2.40;;;;;;;14.17;41.99;101902.28;107571;1254;97790;-59
2023/05/03 06:53:27;;;;;;;6.90;1.90;;;;;;;14.28;41.00;101900.27;107550;1251;109947;-61
2023/05/03 06:55:56;;;;;;;6.90;1.80;;;;;;;14.40;40.02;101903.91;107535;1256;109976;-58
2023/05/03 06:58:25;;;;;;;6.50;1.80;;;;;;;14.52;39.86;101902.36;107559;1251;108956;-57
2023/05/03 07:00:53;;;;;;;9.50;1.80;;;;;;;14.63;39.14;101897.59;107479;1254;97862;-59
2023/05/03 07:03:22;;;;;;;10.60;2.40;;;;;;;14.77;38.78;101895.48;107549;1255;97995;-58
2023/05/03 07:05:51;;;;;;;12.10;2.20;;;;;;;14.89;37.62;101886.83;107538;1255;111124;-63
2023/05/03 07:08:19;;;;;;;5.50;1.90;;;;;;;15.02;36.82;101889.00;107536;1251;109524;-60
2023/05/03 07:10:47;;;;;;;13.90;1.70;;;;;;;15.14;36.89;101889.01;107542;1256;107727;-59
2023/05/03 07:13:16;;;;;;;11.30;1.70;;;;;;;15.24;37.01;101888.80;107533;1251;97848;-60
2023/05/03 07:15:44;;;;;;;6.90;2.00;;;;;;;15.35;36.49;101891.08;107595;1251;97723;-61
2023/05/03 07:18:13;;;;;;;10.90;1.80;;;;;;;15.48;35.22;101893.30;107572;1254;112132;-60
2023/05/03 07:20:41;;;;;;;3.10;1.40;;;;;;;15.61;35.06;101891.79;107527;1255;110275;-63
2023/05/03 07:23:10;;;;;;;7.40;1.40;;;;;;;15.75;34.27;101883.42;107565;1254;108486;-60
2023/05/03 07:25:38;;;;;;;9.80;1.40;;;;;;;15.89;33.90;101880.14;107576;1251;97915;-59
2023/05/03 07:28:07;;;;;;;14.90;1.90;;;;;;;16.01;33.86;101881.17;107569;1254;98355;-59
2023/05/03 07:30:35;;;;;;;9.50;1.80;;;;;;;16.12;33.68;101880.91;107650;1257;111395;-59
2023/05/03 07:33:04;;;;;;;7.40;1.70;;;;;;;16.25;32.94;101883.67;107552;1251;110020;-59
2023/05/03 07:35:32;;;;;;;8.80;1.40;;;;;;;16.36;32.62;101876.81;107583;1256;107325;-58
2023/05/03 07:38:01;;;;;;;8.20;1.40;;;;;;;16.48;32.40;101879.50;107571;1256;97834;-60
2023/05/03 07:40:32;;;;;;;15.40;1.80;;;;;;;16.62;32.34;101873.58;107711;1251;97792;-60
2023/05/03 07:43:00;;;;;;;4.40;1.10;;;;;;;16.75;32.17;101873.61;107542;1251;112628;-59
2023/05/03 07:45:29;;;;;;;6.60;1.80;;;;;;;16.92;31.43;101873.97;107621;1251;109688;-58
2023/05/03 07:47:57;;;;;;;8.60;1.60;;;;;;;17.04;31.13;101875.77;107610;1251;108710;-59
2023/05/03 07:50:25;;;;;;;10.90;1.40;;;;;;;17.18;30.49;101870.38;107541;1251;97810;-60
2023/05/03 07:52:55;;;;;;;8.70;1.50;;;;;;;17.34;29.91;101874.95;107557;1252;97733;-60
2023/05/03 07:55:28;;;;;;;12.80;1.90;;;;;;;17.44;29.51;101871.58;107625;1251;112436;-59
2023/05/03 07:57:58;;;;;;;7.00;1.40;;;;;;;17.59;29.31;101869.20;107616;1251;108893;-60
2023/05/03 08:00:27;;;;;;;10.50;1.50;;;;;;;17.74;29.23;101871.88;107033;1254;667358;-60
2023/05/03 08:02:55;;;;;;;6.30;1.30;;;;;;;17.84;29.92;101868.88;107517;1251;97806;-59
2023/05/03 08:05:24;;;;;;;8.30;1.70;;;;;;;17.95;30.26;101866.66;107678;1254;98369;-59
2023/05/03 08:07:52;;;;;;;3.80;1.50;;;;;;;18.08;29.54;101873.68;107605;1254;111197;-61
2023/05/03 08:10:20;;;;;;;16.10;1.30;;;;;;;18.23;29.01;101876.54;107433;1253;110739;-59
2023/05/03 08:12:50;;;;;;;6.30;1.60;;;;;;;18.36;29.06;101875.16;107585;1251;108196;-61
2023/05/03 08:15:18;;;;;;;5.00;1.20;;;;;;;18.49;28.54;101874.88;107542;1254;97905;-60
2023/05/03 08:17:47;;;;;;;9.00;1.60;;;;;;;18.60;28.25;101876.98;107600;1254;97696;-60
2023/05/03 08:20:15;;;;;;;5.50;1.40;;;;;;;18.71;28.56;101881.27;107524;1251;112455;-61
2023/05/03 08:22:45;;;;;;;13.20;1.90;;;;;;;18.84;27.89;101886.89;107601;1251;109713;-60
2023/05/03 08:25:16;;;;;;;7.00;1.60;;;;;;;18.88;27.84;101878.58;107604;1254;108639;-62
2023/05/03 08:27:45;;;;;;;5.80;1.70;;;;;;;18.95;28.12;101880.08;107523;1251;97825;-60
2023/05/03 08:30:14;;;;;;;6.10;1.80;;;;;;;19.07;28.36;101875.39;107504;1254;98015;-61
2023/05/03 08:32:42;;;;;;;3.80;1.20;;;;;;;19.20;27.83;101876.31;107547;1254;110990;-60
2023/05/03 08:35:12;;;;;;;7.40;1.60;;;;;;;19.31;28.16;101872.28;107607;1256;109069;-59
2023/05/03 08:37:42;;;;;;;10.20;1.30;;;;;;;19.45;27.50;101878.20;107487;1254;107300;-59
2023/05/03 08:40:14;;;;;;;8.60;1.50;;;;;;;19.55;27.79;101877.09;107548;1254;97938;-64
2023/05/03 08:42:45;;;;;;;6.00;1.40;;;;;;;19.70;27.96;101874.55;107385;1251;97823;-63
2023/05/03 08:45:15;;;;;;;5.50;1.60;;;;;;;19.83;27.64;101870.02;107490;1254;110809;-62
2023/05/03 08:47:44;;;;;;;11.00;1.60;;;;;;;19.94;27.63;101868.60;107559;1256;109111;-59
2023/05/03 08:50:14;;;;;;;9.70;1.60;;;;;;;20.12;27.13;101866.02;107589;1254;108474;-60
2023/05/03 08:52:43;;;;;;;4.10;1.30;;;;;;;20.27;27.42;101855.66;107565;1251;97711;-63
2023/05/03 08:55:12;;;;;;;10.40;1.50;;;;;;;20.48;27.16;101856.89;107551;1251;97908;-60
2023/05/03 08:57:41;;;;;;;17.30;1.60;;;;;;;20.70;26.03;101856.14;107540;1251;112052;-60
2023/05/03 09:00:11;;;;;;;7.90;1.10;;;;;;;20.87;25.36;101859.33;107539;1251;110005;-60
2023/05/03 09:02:40;;;;;;;12.30;1.40;;;;;;;21.00;24.87;101867.66;107618;1251;108778;-61
2023/05/03 09:05:15;;;;;;;5.50;1.60;;;;;;;21.11;24.90;101863.39;107500;1251;97841;-62
2023/05/03 09:08:04;;;;;;;12.40;1.50;;;;;;;21.25;24.73;101861.66;107629;1254;98376;-61
2023/05/03 09:10:37;;;;;;;9.80;2.60;;;;;;;21.38;23.74;101863.33;107594;1251;110348;-61
2023/05/03 09:13:06;;;;;;;4.60;1.90;;;;;;;21.48;24.63;101864.18;107578;1251;108812;-61
2023/05/03 09:15:35;;;;;;;11.40;2.50;;;;;;;21.64;24.26;101864.41;107496;1254;107715;-60
2023/05/03 09:18:18;;;;;;;3.30;1.50;;;;;;;21.85;24.43;101863.73;107526;1254;97836;-60
2023/05/03 09:20:50;;;;;;;10.60;2.50;;;;;;;22.21;23.84;101878.55;107582;1254;98373;-60
2023/05/03 09:23:25;;;;;;;;;;;;;;;22.51;23.06;101863.98;107535;1254;112306;-62
2023/05/03 09:25:54;;;;;;;6.40;1.40;;;;;;;22.85;22.66;101862.15;107576;1254;109998;-61
2023/05/03 09:28:24;;;;;;;15.10;1.80;;;;;;;23.22;22.37;101863.98;107550;1256;108265;-62
2023/05/03 09:31:08;;;;;;;10.60;2.00;;;;;;;23.61;22.31;101854.69;107493;1251;97830;-61
2023/05/03 09:33:40;;;;;;;11.60;1.90;;;;;;;24.06;21.21;101852.44;107519;1251;98357;-61
2023/05/03 09:36:09;;;;;;;16.00;2.20;;;;;;;24.40;20.98;101849.40;107559;1254;111810;-61
2023/05/03 09:38:38;;;;;;;6.50;1.80;;;;;;;24.75;20.54;101845.84;107525;1251;109003;-65
2023/05/03 09:41:26;;;;;;;9.60;1.30;;;;;;;25.10;20.14;101844.66;107473;1251;108273;-62
2023/05/03 09:44:01;;;;;;;4.60;1.50;;;;;;;25.39;20.07;101841.80;107542;1251;97829;-64
2023/05/03 09:46:31;;;;;;;7.00;1.80;;;;;;;25.67;20.53;101840.90;107488;1251;98385;-66
2023/05/03 09:49:00;;;;;;;5.30;1.30;;;;;;;26.01;19.92;101840.31;107586;1254;112348;-62
2023/05/03 09:51:32;;;;;;;10.40;1.40;;;;;;;26.41;19.39;101841.43;107547;1251;109665;-62
2023/05/03 09:54:02;;;;;;;12.30;1.90;;;;;;;26.69;19.47;101837.88;107494;1251;109230;-61
2023/05/03 09:56:31;;;;;;;9.50;1.10;;;;;;;26.89;18.79;101837.48;107538;1251;97920;-62
2023/05/03 09:58:59;;;;;;;6.60;1.20;;;;;;;27.09;18.98;101835.16;107565;1254;98301;-58
2023/05/03 10:01:28;;;;;;;6.80;1.30;;;;;;;27.50;17.79;101831.08;107519;1251;111113;-59
2023/05/03 10:03:59;;;;;;;4.20;1.20;;;;;;;27.71;17.66;101835.22;107497;1251;110064;-61
2023/05/03 10:06:37;;;;;;;7.80;1.20;;;;;;;27.97;17.43;101843.63;107538;1251;108996;-60
2023/05/03 10:09:15;;;;;;;4.40;1.20;;;;;;;28.10;17.77;101829.61;107516;1251;97889;-60
2023/05/03 10:11:48;;;;;;;6.50;1.30;;;;;;;28.36;17.26;101834.91;107486;1254;98359;-61
2023/05/03 10:14:16;;;;;;;;;;;;;;;28.62;17.48;101830.31;107531;1251;112830;-61
2023/05/03 10:16:49;;;;;;;14.80;2.00;;;;;;;28.69;17.23;101828.19;107511;1251;109686;-59
2023/05/03 10:19:28;;;;;;;15.70;2.00;;;;;;;28.78;17.68;101822.40;107600;1251;108412;-60
2023/05/03 10:22:06;;;;;;;5.00;1.80;;;;;;;29.02;17.50;101824.49;107441;1251;97880;-60
2023/05/03 10:24:37;;;;;;;5.80;1.20;;;;;;;29.23;17.55;101822.45;107574;1251;98285;-59
2023/05/03 10:27:11;;;;;;;9.20;1.60;;;;;;;29.39;17.68;101821.34;107621;1251;111675;-62
2023/05/03 10:29:47;;;;;;;13.10;1.80;;;;;;;29.69;17.44;101821.36;107465;1254;110312;-61
2023/05/03 10:32:34;;;;;;;4.80;1.40;;;;;;;30.02;16.83;101820.08;107484;1251;107805;-60
2023/05/03 10:35:08;;;;;;;8.70;1.60;;;;;;;30.37;16.73;101817.02;107426;1251;97736;-59
2023/05/03 10:37:39;;;;;;;6.80;1.50;;;;;;;30.68;16.61;101812.92;107570;1251;97841;-60
2023/05/03 10:40:12;;;;;;;5.90;1.70;;;;;;;31.09;16.09;101816.38;107581;1252;112209;-61
2023/05/03 10:42:48;;;;;;;15.90;1.40;;;;;;;31.41;15.08;101817.81;107470;1251;109088;-60
2023/05/03 10:45:25;;;;;;;5.80;1.10;;;;;;;31.37;14.88;101816.20;107620;1256;107699;-60
2023/05/03 10:48:15;;;;;;;5.80;1.50;;;;;;;31.40;15.54;101808.21;107501;1251;97834;-60
2023/05/03 10:50:44;;;;;;;9.80;1.70;;;;;;;31.84;15.57;101806.19;107485;1251;97739;-61
2023/05/03 10:53:34;;;;;;;6.00;1.50;;;;;;;32.26;15.29;101797.22;107556;1251;111290;-60
2023/05/03 10:56:07;;;;;;;7.80;1.10;;;;;;;32.66;15.34;101792.94;107511;1251;109149;-60
2023/05/03 10:58:41;;;;;;;9.40;1.50;;;;;;;33.06;14.42;101792.17;107524;1251;108189;-60
2023/05/03 11:01:12;;;;;;;5.90;1.20;;;;;;;33.05;14.26;101784.67;107413;1254;97752;-61
2023/05/03 11:04:00;;;;;;;11.10;1.80;;;;;;;33.19;14.31;101785.88;107486;1257;98337;-59
2023/05/03 11:06:33;;;;;;;9.90;1.20;;;;;;;33.42;13.74;101784.98;107483;1251;111653;-60
2023/05/03 11:09:06;;;;;;;2.30;1.00;;;;;;;33.38;13.60;101779.20;107457;1251;108629;-60
2023/05/03 11:11:38;;;;;;;7.60;1.30;;;;;;;33.55;13.27;101777.66;107425;1251;107671;-60
2023/05/03 11:14:08;;;;;;;12.80;1.20;;;;;;;33.50;13.03;101782.04;107433;1251;97997;-61
2023/05/03 11:16:45;;;;;;;5.50;1.00;;;;;;;33.49;13.41;101776.05;107519;1251;97700;-61
2023/05/03 11:19:16;;;;;;;3.10;1.00;;;;;;;33.58;13.48;101775.95;107501;1251;111287;-63
2023/05/03 11:21:44;;;;;;;6.40;1.20;;;;;;;33.82;14.00;101770.48;107573;1251;108974;-60
2023/05/03 11:24:15;;;;;;;5.50;1.10;;;;;;;34.15;13.60;101769.17;107463;1251;107653;-60
2023/05/03 11:26:43;;;;;;;6.60;1.30;;;;;;;34.46;13.07;101765.80;107532;1251;97832;-61
2023/05/03 11:29:13;;;;;;;8.20;1.20;;;;;;;34.68;12.62;101763.80;107574;1251;98365;-59